Date,TemperatureHighF,TemperatureAvgF,TemperatureLowF,DewpointHighF,DewpointAvgF,DewpointLowF,HumidityHigh,HumidityAvg,HumidityLow,PressureMaxIn,PressureMinIn,WindSpeedMaxMPH,WindSpeedAvgMPH,GustSpeedMaxMPH,PrecipitationSumIn
2013-11-1,74,65,53,64,60,50,95,83,63,29.76,29.52,9,2,13,0.04
2013-11-2,68,56,47,50,42,36,94,62,37,29.88,29.61,14,4,16,0.01
2013-11-3,62,48,36,40,36,32,89,65,37,30.28,29.88,8,2,14,0.00
2013-11-4,57,43,31,38,32,29,95,70,36,30.45,30.29,5,0,10,0.00
2013-11-5,60,46,32,48,37,29,92,74,45,30.49,30.35,5,0,8,0.00
2013-11-6,66,54,47,54,50,45,95,87,65,30.35,30.04,2,0,7,0.04
2013-11-7,66,49,34,56,42,31,97,77,48,30.07,29.90,16,2,21,0.00
2013-11-8,57,42,28,35,27,23,92,62,28,30.25,30.07,9,2,13,0.00
2013-11-9,57,40,26,34,29,24,92,70,35,30.30,30.12,7,1,13,0.00
2013-11-10,71,49,31,41,33,27,93,59,26,30.17,30.05,11,2,19,0.00
2013-11-11,63,44,27,32,27,20,84,55,20,30.27,30.06,6,0,19,0.00
2013-11-12,60,40,27,40,28,15,86,65,39,30.39,29.96,13,4,20,0.00
2013-11-13,51,36,26,20,17,14,76,50,26,30.45,30.36,9,3,20,0.00
2013-11-14,59,39,20,28,23,17,90,58,24,30.40,30.23,4,0,10,0.00
2013-11-15,53,40,26,46,32,22,94,76,42,30.27,30.13,0,0,8,0.07
2013-11-16,56,51,47,52,49,45,96,93,84,30.19,30.11,0,0,0,0.01
2013-11-17,60,55,52,56,53,50,96,94,87,30.12,29.78,0,0,0,0.30
2013-11-18,70,59,46,58,44,31,97,62,31,29.92,29.73,12,3,19,0.02
2013-11-19,57,45,34,33,28,24,78,54,32,30.19,29.91,8,2,14,0.00
2013-11-20,52,40,32,32,29,26,90,66,43,30.39,30.18,8,1,10,0.00
2013-11-21,53,46,34,47,40,31,93,79,69,30.42,30.30,5,0,9,0.00
2013-11-22,59,53,48,57,51,46,96,94,89,30.32,30.01,0,0,0,0.05
2013-11-23,59,51,38,53,40,20,96,68,40,30.14,29.99,13,4,16,0.00
2013-11-24,40,32,23,20,11,4,64,43,25,30.44,30.14,9,5,15,0.00
2013-11-25,37,28,18,29,15,10,89,59,36,30.49,30.29,5,0,11,0.01
2013-11-26,41,36,32,40,34,26,96,93,81,30.29,29.56,5,0,8,1.75
2013-11-27,44,36,24,42,28,15,96,73,54,30.11,29.48,13,5,24,0.04
2013-11-28,46,29,17,25,20,15,91,71,38,30.41,30.11,4,0,24,0.00
2013-11-29,56,34,21,30,25,19,93,72,34,30.55,30.39,6,1,9,0.00
2013-11-30,46,33,25,26,24,22,89,72,42,30.58,30.31,5,0,9,0.00